Time;durP1;ratioP1;P1;durP2;ratioP2;P2;SDS_P1;SDS_P2;PMS_P1;PMS_P2;Temp;Humidity;BMP_temperature;BMP_pressure;BME280_temperature;BME280_humidity;BME280_pressure;Samples;Min_cycle;Max_cycle;Signal;HPM_P1;HPM_P2
2021/07/22 00:01:15;;;;;;;8.97;6.60;;;;;;;15.86;75.60;98522.41;4978732;28;20603;-70
2021/07/22 00:03:44;;;;;;;10.13;7.40;;;;;;;15.77;75.51;98522.50;4977845;28;20278;-69
2021/07/22 00:06:31;;;;;;;6.87;6.27;;;;;;;15.70;77.29;98526.09;4980728;28;20923;-69
2021/07/22 00:08:59;;;;;;;7.40;6.80;;;;;;;15.50;79.43;98526.66;4979671;28;20581;-71
2021/07/22 00:11:27;;;;;;;7.60;7.03;;;;;;;15.42;79.89;98526.75;4985802;28;20222;-71
2021/07/22 00:13:55;;;;;;;8.07;7.37;;;;;;;15.28;80.64;98529.19;4986698;28;20256;-68
2021/07/22 00:16:23;;;;;;;8.80;8.00;;;;;;;15.14;81.75;98527.31;4981850;28;20209;-69
2021/07/22 00:18:51;;;;;;;8.07;7.37;;;;;;;15.00;83.45;98523.59;4985300;28;20234;-71
2021/07/22 00:21:19;;;;;;;7.70;7.00;;;;;;;15.04;83.63;98528.41;4984034;28;20210;-70
2021/07/22 00:23:48;;;;;;;7.50;7.00;;;;;;;14.80;84.48;98525.94;4985483;28;20236;-70
2021/07/22 00:26:16;;;;;;;8.37;7.67;;;;;;;14.62;86.82;98530.53;4985540;28;20213;-69
2021/07/22 00:28:44;;;;;;;8.30;7.50;;;;;;;14.61;87.17;98525.38;4985575;28;20276;-70
2021/07/22 00:31:12;;;;;;;8.47;7.67;;;;;;;14.54;88.38;98522.56;4986076;28;20252;-70
2021/07/22 00:33:40;;;;;;;7.77;7.27;;;;;;;14.33;89.27;98520.53;4983676;28;20233;-71
2021/07/22 00:36:09;;;;;;;7.70;7.10;;;;;;;14.23;90.94;98528.75;4983131;28;20721;-70
2021/07/22 00:38:37;;;;;;;8.83;7.77;;;;;;;14.29;91.73;98529.91;4984368;28;20926;-71
2021/07/22 00:41:10;;;;;;;8.23;7.63;;;;;;;14.13;92.22;98531.63;4985507;28;20210;-68
2021/07/22 00:43:40;;;;;;;8.37;7.67;;;;;;;14.07;92.64;98527.00;4985174;28;20241;-70
2021/07/22 00:46:08;;;;;;;7.83;7.30;;;;;;;13.98;94.16;98528.03;4984807;28;20206;-70
2021/07/22 00:48:36;;;;;;;8.27;7.57;;;;;;;13.87;93.82;98524.75;4983289;28;20216;-69
2021/07/22 00:51:04;;;;;;;8.43;7.60;;;;;;;13.83;94.58;98526.09;4985741;28;20625;-68
2021/07/22 00:53:34;;;;;;;8.87;8.17;;;;;;;13.81;95.42;98525.41;4983626;28;20576;-70
2021/07/22 00:56:03;;;;;;;8.37;7.63;;;;;;;13.70;96.03;98525.78;4982476;28;20221;-70
2021/07/22 00:58:32;;;;;;;8.80;8.00;;;;;;;13.66;96.76;98519.16;4982704;28;20205;-70
2021/07/22 01:01:00;;;;;;;8.20;7.50;;;;;;;13.54;97.65;98524.84;4981770;28;20205;-72
2021/07/22 01:03:29;;;;;;;9.40;8.53;;;;;;;13.54;97.79;98519.53;4983380;28;20627;-71
2021/07/22 01:05:57;;;;;;;9.10;8.30;;;;;;;13.46;98.77;98516.88;4985619;28;20205;-70
2021/07/22 01:08:25;;;;;;;7.97;7.17;;;;;;;13.42;99.42;98527.03;4984182;28;20205;-69
2021/07/22 01:10:53;;;;;;;8.80;8.10;;;;;;;13.39;99.69;98521.16;4986021;28;20714;-70
2021/07/22 01:13:21;;;;;;;9.33;8.53;;;;;;;13.29;100.00;98521.38;4982200;28;20570;-70
2021/07/22 01:15:50;;;;;;;9.80;8.97;;;;;;;13.28;100.00;98525.84;4986050;28;20210;-69
2021/07/22 01:18:18;;;;;;;8.53;7.93;;;;;;;13.23;100.00;98520.22;4985561;28;20217;-70
2021/07/22 01:20:47;;;;;;;9.03;8.23;;;;;;;13.23;100.00;98520.22;4985245;28;20216;-69
2021/07/22 01:23:15;;;;;;;8.93;8.13;;;;;;;13.26;100.00;98517.22;4986021;28;20210;-69
2021/07/22 01:25:43;;;;;;;8.73;8.13;;;;;;;13.19;100.00;98516.22;4982799;28;20296;-70
2021/07/22 01:28:11;;;;;;;8.30;7.70;;;;;;;13.06;100.00;98519.38;4982828;28;20214;-68
2021/07/22 01:30:39;;;;;;;9.57;8.63;;;;;;;12.94;100.00;98516.22;4983409;28;20225;-69
2021/07/22 01:33:07;;;;;;;9.30;8.50;;;;;;;12.88;100.00;98514.22;4984572;28;20224;-70
2021/07/22 01:35:37;;;;;;;9.90;8.97;;;;;;;12.81;100.00;98508.72;4984975;28;20229;-74
2021/07/22 01:38:06;;;;;;;10.57;8.93;;;;;;;12.81;100.00;98505.25;4985083;28;20457;-71
2021/07/22 01:40:35;;;;;;;9.20;8.50;;;;;;;12.85;100.00;98512.72;4983814;28;20217;-71
2021/07/22 01:43:05;;;;;;;10.03;9.33;;;;;;;12.80;100.00;98503.59;4985333;28;20855;-70
2021/07/22 01:45:33;;;;;;;9.77;8.77;;;;;;;12.78;100.00;98509.06;4984052;28;20209;-69
2021/07/22 01:48:01;;;;;;;9.13;8.27;;;;;;;12.73;100.00;98514.06;4986640;28;20212;-71
2021/07/22 01:50:29;;;;;;;9.10;8.37;;;;;;;12.69;100.00;98504.75;4980555;28;20198;-69
2021/07/22 01:52:57;;;;;;;9.67;8.87;;;;;;;12.68;100.00;98505.75;4982865;28;20233;-69
2021/07/22 01:55:27;;;;;;;10.13;9.13;;;;;;;12.68;100.00;98503.09;4980646;28;20220;-69
2021/07/22 01:57:57;;;;;;;9.40;8.70;;;;;;;12.63;100.00;98494.78;4986902;28;20209;-70
2021/07/22 02:00:25;;;;;;;9.77;8.83;;;;;;;12.57;100.00;98496.25;4981153;28;20706;-69
2021/07/22 02:02:53;;;;;;;10.20;9.37;;;;;;;12.59;100.00;98502.25;4984466;28;20693;-70
2021/07/22 02:05:22;;;;;;;9.40;8.50;;;;;;;12.50;100.00;98500.56;4982745;28;20265;-68
2021/07/22 02:07:50;;;;;;;9.90;9.10;;;;;;;12.45;100.00;98499.25;4984687;28;20303;-69
2021/07/22 02:10:20;;;;;;;9.60;8.83;;;;;;;12.44;100.00;98494.06;4981743;28;20363;-71
2021/07/22 02:12:49;;;;;;;11.10;9.60;;;;;;;12.43;100.00;98498.56;4981321;28;20369;-69
2021/07/22 02:15:17;;;;;;;11.27;9.93;;;;;;;12.39;100.00;98494.59;4982875;28;20232;-71
2021/07/22 02:17:46;;;;;;;9.50;8.70;;;;;;;12.32;100.00;98490.06;4983550;28;20277;-70
2021/07/22 02:20:15;;;;;;;10.00;8.97;;;;;;;12.28;100.00;98497.53;4983067;28;20323;-69
2021/07/22 02:22:43;;;;;;;9.73;8.83;;;;;;;12.25;100.00;98500.50;4984724;28;20220;-70
2021/07/22 02:25:12;;;;;;;10.40;9.57;;;;;;;12.26;100.00;98496.88;4981161;28;20732;-67
2021/07/22 02:27:39;;;;;;;9.33;8.63;;;;;;;12.24;100.00;98491.72;4982419;28;20344;-71
2021/07/22 02:30:10;;;;;;;9.23;8.50;;;;;;;12.27;100.00;98498.53;4983743;28;20325;-69
2021/07/22 02:32:38;;;;;;;9.73;8.80;;;;;;;12.20;100.00;98505.47;4980985;28;20556;-69
2021/07/22 02:35:07;;;;;;;9.40;8.70;;;;;;;12.14;100.00;98499.00;4984319;28;20221;-70
2021/07/22 02:37:35;;;;;;;10.07;9.13;;;;;;;12.06;100.00;98502.47;4982301;28;20214;-71
2021/07/22 02:40:04;;;;;;;10.27;9.40;;;;;;;12.04;100.00;98500.94;4981456;28;20201;-71
2021/07/22 02:42:32;;;;;;;9.83;9.00;;;;;;;12.03;100.00;98500.13;4982034;28;20225;-69
2021/07/22 02:45:00;;;;;;;10.53;9.50;;;;;;;11.98;100.00;98505.06;4982482;28;20772;-72
2021/07/22 02:47:29;;;;;;;10.20;9.30;;;;;;;11.96;100.00;98502.56;4980799;28;20210;-70
2021/07/22 02:49:57;;;;;;;10.03;9.23;;;;;;;12.00;100.00;98495.97;4979995;28;20216;-71
2021/07/22 02:52:25;;;;;;;10.90;9.90;;;;;;;11.96;100.00;98501.75;4981065;28;20225;-68
2021/07/22 02:54:53;;;;;;;10.47;9.10;;;;;;;11.98;100.00;98505.06;4980130;28;20236;-69
2021/07/22 02:57:21;;;;;;;10.13;9.13;;;;;;;11.99;100.00;98501.41;4976104;28;20218;-71
2021/07/22 02:59:49;;;;;;;10.33;9.40;;;;;;;11.92;100.00;98501.22;4980020;28;20205;-70
2021/07/22 03:02:17;;;;;;;10.30;9.40;;;;;;;11.93;100.00;98502.03;4977430;28;20636;-71
2021/07/22 03:04:47;;;;;;;11.23;10.33;;;;;;;11.88;100.00;98495.38;4981515;28;20585;-72
2021/07/22 03:07:15;;;;;;;10.23;9.27;;;;;;;11.90;100.00;98497.03;4981974;28;20220;-70
2021/07/22 03:09:43;;;;;;;10.10;9.13;;;;;;;11.83;100.00;98502.19;4983635;28;20201;-69
2021/07/22 03:12:11;;;;;;;10.37;9.53;;;;;;;11.79;100.00;98496.34;4982992;28;20763;-70
2021/07/22 03:14:39;;;;;;;11.00;10.10;;;;;;;11.73;100.00;98503.13;4979474;28;20631;-71
2021/07/22 03:17:07;;;;;;;9.43;8.73;;;;;;;11.65;100.00;98495.13;4983673;28;20208;-71
2021/07/22 03:19:38;;;;;;;10.23;9.30;;;;;;;11.58;100.00;98494.94;4979807;28;20578;-71
2021/07/22 03:22:08;;;;;;;10.70;9.70;;;;;;;11.55;100.00;98505.03;4985907;28;20197;-68
2021/07/22 03:24:36;;;;;;;11.60;10.60;;;;;;;11.55;100.00;98499.72;4980875;28;20576;-71
2021/07/22 03:27:04;;;;;;;10.90;9.90;;;;;;;11.46;100.00;98496.19;4984084;28;20220;-70
2021/07/22 03:29:32;;;;;;;10.47;9.50;;;;;;;11.46;100.00;98506.81;4982551;28;20205;-71
2021/07/22 03:32:01;;;;;;;11.03;10.13;;;;;;;11.50;100.00;98504.69;4983545;28;20218;-69
2021/07/22 03:34:29;;;;;;;11.40;10.40;;;;;;;11.41;100.00;98506.44;4982769;28;20835;-72
2021/07/22 03:36:57;;;;;;;10.77;9.77;;;;;;;11.32;100.00;98502.09;4979972;28;20214;-69
2021/07/22 03:39:26;;;;;;;10.83;9.67;;;;;;;11.33;100.00;98506.41;4982596;28;20214;-69
2021/07/22 03:41:54;;;;;;;12.60;11.50;;;;;;;11.40;100.00;98504.78;4978749;28;20210;-69
2021/07/22 03:44:22;;;;;;;11.73;10.83;;;;;;;11.34;100.00;98503.56;4982247;28;20222;-72
2021/07/22 03:46:50;;;;;;;12.83;11.17;;;;;;;11.40;100.00;98513.59;4979956;28;20213;-71
2021/07/22 03:49:18;;;;;;;10.50;9.50;;;;;;;11.50;100.00;98508.16;4984878;28;20201;-72
2021/07/22 03:51:46;;;;;;;11.40;10.40;;;;;;;11.42;100.00;98511.59;4985187;28;20202;-72
2021/07/22 03:54:15;;;;;;;11.07;10.17;;;;;;;11.44;100.00;98512.28;4987738;28;20673;-70
2021/07/22 03:56:44;;;;;;;10.47;9.50;;;;;;;11.43;100.00;98513.28;4987189;28;20674;-72
2021/07/22 03:59:12;;;;;;;11.20;10.20;;;;;;;11.50;100.00;98513.47;4983877;28;20304;-72
2021/07/22 04:01:40;;;;;;;12.17;11.17;;;;;;;11.55;100.00;98515.66;4989182;28;20213;-71
2021/07/22 04:04:08;;;;;;;11.23;10.43;;;;;;;11.50;100.00;98513.47;4987106;28;20240;-72
2021/07/22 04:06:37;;;;;;;11.47;10.43;;;;;;;11.61;100.00;98522.97;4986676;28;20225;-72
2021/07/22 04:09:05;;;;;;;12.27;11.20;;;;;;;11.65;100.00;98521.66;4987702;28;20205;-71
2021/07/22 04:11:36;;;;;;;12.47;11.37;;;;;;;11.67;100.00;98517.03;4987341;28;20750;-71
2021/07/22 04:14:06;;;;;;;12.33;11.13;;;;;;;11.73;100.00;98523.53;4989353;28;20609;-73
2021/07/22 04:16:35;;;;;;;11.13;10.23;;;;;;;11.81;100.00;98526.22;4982950;28;20636;-73
2021/07/22 04:19:04;;;;;;;11.70;10.60;;;;;;;11.85;100.00;98527.56;4982971;28;20209;-72
2021/07/22 04:21:32;;;;;;;12.17;11.20;;;;;;;11.86;100.00;98523.94;4986567;28;20205;-73
2021/07/22 04:24:00;;;;;;;12.43;11.43;;;;;;;11.99;100.00;98520.00;4986846;28;20268;-71
2021/07/22 04:26:28;;;;;;;11.63;10.63;;;;;;;12.12;100.00;98528.38;4984964;28;20209;-72
2021/07/22 04:28:56;;;;;;;11.07;10.13;;;;;;;12.10;100.00;98529.53;4983327;28;20458;-70
2021/07/22 04:31:25;;;;;;;11.90;10.90;;;;;;;12.05;100.00;98522.06;4982188;28;20855;-73
2021/07/22 04:33:53;;;;;;;10.43;9.53;;;;;;;12.01;100.00;98531.34;4981526;28;20232;-71
2021/07/22 04:36:21;;;;;;;14.40;9.90;;;;;;;12.07;100.00;98525.38;4983526;28;20213;-72
2021/07/22 04:38:49;;;;;;;12.00;10.90;;;;;;;12.13;100.00;98534.53;4984485;28;20217;-70
2021/07/22 04:41:17;;;;;;;11.70;10.80;;;;;;;12.17;100.00;98533.22;4985479;28;20644;-70
2021/07/22 04:43:46;;;;;;;11.27;10.27;;;;;;;12.20;100.00;98527.59;4985755;28;20236;-71
2021/07/22 04:46:14;;;;;;;12.83;11.63;;;;;;;12.31;100.00;98529.09;4984450;28;20217;-71
2021/07/22 04:48:44;;;;;;;13.40;11.97;;;;;;;12.42;100.00;98522.66;4984555;28;20205;-74
2021/07/22 04:51:12;;;;;;;12.07;10.93;;;;;;;12.45;100.00;98527.63;4984812;28;20594;-71
2021/07/22 04:53:41;;;;;;;13.20;12.00;;;;;;;12.70;100.00;98536.50;4982709;28;20510;-71
2021/07/22 04:56:09;;;;;;;12.37;11.27;;;;;;;12.82;100.00;98542.31;4984760;28;20876;-72
2021/07/22 04:58:37;;;;;;;12.47;11.40;;;;;;;12.87;100.00;98537.31;4983210;28;20288;-73
2021/07/22 05:01:05;;;;;;;11.90;10.80;;;;;;;12.88;100.00;98543.50;4981679;28;20214;-74
2021/07/22 05:03:34;;;;;;;11.47;10.47;;;;;;;12.95;100.00;98535.69;4981037;28;20225;-70
2021/07/22 05:06:03;;;;;;;11.63;10.57;;;;;;;13.09;100.00;98539.53;4988083;28;20206;-71
2021/07/22 05:08:32;;;;;;;11.37;10.47;;;;;;;13.08;100.00;98538.69;4983463;28;20251;-68
2021/07/22 05:10:59;;;;;;;12.33;11.23;;;;;;;13.18;100.00;98543.84;4984416;28;20220;-72
2021/07/22 05:13:27;;;;;;;11.60;10.60;;;;;;;13.26;100.00;98535.84;4983276;28;20713;-70
2021/07/22 05:15:56;;;;;;;11.53;10.53;;;;;;;13.32;100.00;98543.13;4984766;28;20281;-72
2021/07/22 05:18:24;;;;;;;12.00;11.00;;;;;;;13.34;100.00;98544.81;4982089;28;20320;-72
2021/07/22 05:20:52;;;;;;;12.27;11.10;;;;;;;13.45;100.00;98550.66;4986358;28;20288;-75
2021/07/22 05:23:22;;;;;;;12.87;11.57;;;;;;;13.55;100.00;98546.97;4984924;28;20212;-73
2021/07/22 05:25:50;;;;;;;12.60;11.43;;;;;;;13.68;100.00;98539.28;4983742;28;20738;-74
2021/07/22 05:28:18;;;;;;;11.50;10.60;;;;;;;13.85;99.88;98547.22;4983326;28;20284;-72
2021/07/22 05:30:46;;;;;;;12.83;11.60;;;;;;;13.95;99.42;98547.03;4982580;28;20212;-74
2021/07/22 05:33:15;;;;;;;12.10;11.10;;;;;;;13.99;98.49;98543.84;4983484;28;20209;-73
2021/07/22 05:35:43;;;;;;;11.17;10.17;;;;;;;14.14;98.11;98546.59;4984337;28;20704;-72
2021/07/22 05:38:11;;;;;;;12.17;10.97;;;;;;;14.36;97.73;98540.66;4982211;28;20490;-70
2021/07/22 05:40:40;;;;;;;12.80;11.70;;;;;;;14.40;97.00;98540.16;4984451;28;20663;-73
2021/07/22 05:43:08;;;;;;;12.40;11.17;;;;;;;14.44;97.01;98537.97;4984795;28;20213;-71
2021/07/22 05:45:36;;;;;;;12.23;10.63;;;;;;;14.56;96.62;98541.91;4977363;28;20294;-72
2021/07/22 05:48:05;;;;;;;11.77;10.67;;;;;;;14.82;93.54;98537.25;4984912;28;20254;-71
2021/07/22 05:50:34;;;;;;;11.47;10.40;;;;;;;15.08;91.05;98542.22;4979545;28;20225;-71
2021/07/22 05:53:02;;;;;;;11.17;10.23;;;;;;;15.16;89.98;98544.84;4982446;28;20374;-72
2021/07/22 05:55:30;;;;;;;11.63;10.63;;;;;;;15.10;91.14;98539.38;4980896;28;20596;-73
2021/07/22 05:58:00;;;;;;;11.17;10.10;;;;;;;15.24;89.76;98540.44;4980070;28;20224;-71
2021/07/22 06:00:28;;;;;;;11.50;10.27;;;;;;;15.27;88.86;98542.75;4983150;28;20220;-73
2021/07/22 06:02:56;;;;;;;10.23;9.27;;;;;;;15.46;86.93;98546.72;4979286;28;20298;-73
2021/07/22 06:05:25;;;;;;;9.93;9.03;;;;;;;15.63;85.38;98542.06;4978661;28;20221;-70
2021/07/22 06:07:53;;;;;;;11.80;10.53;;;;;;;15.73;86.37;98544.47;4979868;28;20657;-69
2021/07/22 06:10:21;;;;;;;11.67;10.47;;;;;;;15.78;85.60;98536.72;4980739;28;20296;-71
2021/07/22 06:12:49;;;;;;;11.90;10.50;;;;;;;15.84;85.95;98532.47;4975114;28;20217;-72
2021/07/22 06:15:19;;;;;;;15.07;10.80;;;;;;;15.99;81.95;98540.50;4980295;28;20229;-72
2021/07/22 06:17:47;;;;;;;11.30;10.07;;;;;;;16.05;82.93;98529.06;4981304;28;20758;-70
2021/07/22 06:20:16;;;;;;;14.37;10.60;;;;;;;16.32;81.08;98534.75;4982093;28;20297;-71
2021/07/22 06:22:45;;;;;;;12.60;11.10;;;;;;;16.29;81.05;98532.44;4980782;28;20206;-70
2021/07/22 06:25:14;;;;;;;12.03;10.60;;;;;;;16.42;80.41;98534.44;4981458;28;20217;-70
2021/07/22 06:27:44;;;;;;;15.87;10.63;;;;;;;16.46;79.67;98533.88;4980761;28;20201;-72
2021/07/22 06:30:13;;;;;;;13.97;10.70;;;;;;;16.57;79.88;98535.22;4984078;28;20221;-74
2021/07/22 06:32:43;;;;;;;11.40;10.20;;;;;;;16.82;77.62;98523.31;4978368;28;20197;-73
2021/07/22 06:35:12;;;;;;;11.30;10.30;;;;;;;16.84;77.29;98526.63;4980388;28;20304;-71
2021/07/22 06:37:45;;;;;;;12.00;10.63;;;;;;;16.85;76.32;98526.44;4981472;28;20202;-70
2021/07/22 06:40:14;;;;;;;10.77;9.80;;;;;;;17.03;75.31;98531.38;4977999;28;20206;-73
2021/07/22 06:42:42;;;;;;;11.37;10.40;;;;;;;17.15;75.65;98534.38;4982918;28;20221;-71
2021/07/22 06:45:11;;;;;;;11.83;10.83;;;;;;;17.26;75.26;98526.81;4978134;28;20775;-72
2021/07/22 06:47:39;;;;;;;11.23;10.13;;;;;;;17.35;73.61;98531.00;4982628;28;20213;-72
2021/07/22 06:50:10;;;;;;;12.47;11.27;;;;;;;17.53;72.80;98533.19;4979616;28;20265;-70
2021/07/22 06:52:38;;;;;;;12.60;11.13;;;;;;;17.55;73.07;98539.19;4978979;28;20706;-71
2021/07/22 06:55:08;;;;;;;14.93;13.50;;;;;;;17.73;72.58;98535.19;4981086;28;20248;-70
2021/07/22 06:57:36;;;;;;;11.67;9.83;;;;;;;17.84;72.75;98526.56;4980398;28;20201;-74
2021/07/22 07:00:04;;;;;;;9.43;8.63;;;;;;;17.85;72.21;98527.41;4983359;28;20209;-70
2021/07/22 07:02:32;;;;;;;8.73;7.83;;;;;;;17.98;72.60;98527.47;4980705;28;20209;-73
2021/07/22 07:05:00;;;;;;;12.47;9.00;;;;;;;18.07;71.81;98528.19;4981633;28;20244;-75
2021/07/22 07:07:30;;;;;;;9.47;8.60;;;;;;;18.11;71.91;98521.38;4981683;28;20209;-75
2021/07/22 07:09:58;;;;;;;9.97;8.93;;;;;;;18.16;73.12;98524.28;4980550;28;20202;-69
2021/07/22 07:12:28;;;;;;;10.50;9.40;;;;;;;18.38;72.01;98532.22;4979032;28;20210;-69
2021/07/22 07:14:56;;;;;;;8.53;7.63;;;;;;;18.44;71.45;98527.88;4981335;28;20237;-70
2021/07/22 07:17:25;;;;;;;9.13;7.63;;;;;;;18.54;70.37;98520.25;4983279;28;20634;-71
2021/07/22 07:19:53;;;;;;;8.60;7.80;;;;;;;18.64;70.25;98518.03;4984057;28;20269;-69
2021/07/22 07:22:21;;;;;;;9.90;8.10;;;;;;;18.72;69.23;98519.69;4983719;28;20205;-71
2021/07/22 07:24:50;;;;;;;10.00;7.70;;;;;;;18.66;70.24;98515.13;4980095;28;20221;-72
2021/07/22 07:27:18;;;;;;;8.30;7.60;;;;;;;18.83;68.98;98520.13;4986166;28;20211;-68
2021/07/22 07:29:46;;;;;;;8.90;8.00;;;;;;;18.97;69.38;98518.28;4987505;28;20569;-69
2021/07/22 07:32:14;;;;;;;9.47;8.10;;;;;;;18.92;69.18;98522.41;4984719;28;20205;-70
2021/07/22 07:34:42;;;;;;;9.30;8.43;;;;;;;19.02;69.12;98518.53;4984122;28;20232;-69
2021/07/22 07:37:10;;;;;;;9.30;8.53;;;;;;;19.17;69.21;98510.25;4984366;28;20201;-68
2021/07/22 07:39:38;;;;;;;10.43;7.97;;;;;;;19.14;69.74;98519.56;4986736;28;20705;-69
2021/07/22 07:42:08;;;;;;;8.93;8.23;;;;;;;19.28;68.36;98511.47;4988782;28;20578;-72
2021/07/22 07:44:36;;;;;;;8.07;7.37;;;;;;;19.31;68.24;98508.38;4984806;28;20214;-68
2021/07/22 07:47:04;;;;;;;7.93;7.20;;;;;;;19.65;65.51;98512.69;4986644;28;20220;-70
2021/07/22 07:49:32;;;;;;;7.43;6.93;;;;;;;19.34;67.87;98506.09;4984586;28;20213;-70
2021/07/22 07:52:00;;;;;;;8.40;7.70;;;;;;;19.59;66.78;98513.53;4984026;28;20602;-69
2021/07/22 07:54:28;;;;;;;9.23;8.53;;;;;;;19.51;65.23;98503.81;4983306;28;20636;-71
2021/07/22 07:56:56;;;;;;;8.50;7.83;;;;;;;19.62;66.02;98504.19;4982064;28;20705;-70
2021/07/22 07:59:26;;;;;;;7.97;7.33;;;;;;;19.95;65.08;98498.78;4982072;28;20201;-70
2021/07/22 08:01:54;;;;;;;9.00;7.90;;;;;;;19.97;65.82;98500.41;4982057;28;20206;-70
2021/07/22 08:04:22;;;;;;;8.27;7.47;;;;;;;20.17;65.28;98500.34;4982027;28;20291;-69
2021/07/22 08:06:50;;;;;;;8.97;8.13;;;;;;;20.21;64.14;98499.66;4984141;28;20213;-70
2021/07/22 08:09:18;;;;;;;9.43;8.13;;;;;;;19.91;63.67;98492.16;4985400;28;20209;-71
2021/07/22 08:11:46;;;;;;;8.97;8.13;;;;;;;19.85;64.77;98492.97;4983871;28;20213;-70
2021/07/22 08:14:14;;;;;;;8.93;8.13;;;;;;;19.99;64.36;98498.34;4980749;28;21036;-71
2021/07/22 08:16:45;;;;;;;8.77;7.93;;;;;;;20.24;63.71;98490.34;4984274;28;20327;-70
2021/07/22 08:19:13;;;;;;;8.80;8.10;;;;;;;20.34;63.21;98495.28;4982825;28;20252;-69
2021/07/22 08:21:41;;;;;;;10.47;8.63;;;;;;;20.52;64.16;98491.88;4983240;28;20220;-71
2021/07/22 08:24:09;;;;;;;8.27;7.60;;;;;;;20.72;62.65;98489.03;4982225;28;20244;-69
2021/07/22 08:26:37;;;;;;;9.30;8.50;;;;;;;20.76;61.49;98487.56;4984489;28;20296;-72
2021/07/22 08:29:05;;;;;;;8.60;7.90;;;;;;;20.87;61.29;98483.38;4984074;28;20227;-71
2021/07/22 08:31:34;;;;;;;9.30;8.50;;;;;;;20.98;59.41;98478.31;4983417;28;20304;-73
2021/07/22 08:34:03;;;;;;;11.10;8.70;;;;;;;20.88;60.41;98486.88;4984981;28;20228;-70
2021/07/22 08:36:31;;;;;;;9.67;8.97;;;;;;;21.00;60.30;98477.03;4982177;28;20234;-71
2021/07/22 08:39:00;;;;;;;9.57;8.80;;;;;;;21.04;58.67;98477.44;4981416;28;20205;-71
2021/07/22 08:41:28;;;;;;;9.27;8.17;;;;;;;21.15;58.55;98474.00;4980898;28;20244;-74
2021/07/22 08:43:56;;;;;;;10.57;8.70;;;;;;;21.08;57.83;98475.94;4985492;28;20225;-72
2021/07/22 08:46:25;;;;;;;9.57;8.73;;;;;;;21.33;56.70;98478.59;4981233;28;20200;-71
2021/07/22 08:48:53;;;;;;;9.10;8.40;;;;;;;21.44;56.76;98484.34;4985995;28;20532;-70
2021/07/22 08:51:25;;;;;;;9.67;8.67;;;;;;;21.38;57.28;98475.25;4984060;28;20205;-73
2021/07/22 08:53:56;;;;;;;11.10;9.97;;;;;;;21.36;56.61;98472.78;4983512;28;20228;-70
2021/07/22 08:56:27;;;;;;;10.20;9.30;;;;;;;21.46;56.21;98472.25;4980756;28;20330;-70
2021/07/22 08:58:56;;;;;;;10.30;9.37;;;;;;;21.73;54.16;98471.16;4983241;28;20276;-72
2021/07/22 09:01:27;;;;;;;11.47;9.10;;;;;;;21.53;55.25;98474.91;4983932;28;20206;-73
2021/07/22 09:03:58;;;;;;;10.67;9.73;;;;;;;21.58;57.41;98475.03;4982724;28;20355;-73
2021/07/22 09:06:27;;;;;;;9.33;8.37;;;;;;;21.81;54.09;98470.91;4982670;28;20189;-71
2021/07/22 09:09:13;;;;;;;9.27;8.47;;;;;;;21.84;53.40;98467.75;4984070;28;20217;-71
2021/07/22 09:11:57;;;;;;;9.20;8.30;;;;;;;21.79;54.47;98464.91;4982800;28;20199;-72
2021/07/22 09:14:26;;;;;;;9.27;7.73;;;;;;;22.07;55.20;98466.19;4983988;28;20236;-70
2021/07/22 09:16:54;;;;;;;9.83;8.97;;;;;;;22.13;54.40;98470.69;4982033;28;20230;-69
2021/07/22 09:19:36;;;;;;;9.03;8.17;;;;;;;22.26;54.49;98469.69;4983732;28;20206;-70
2021/07/22 09:22:07;;;;;;;8.73;7.83;;;;;;;22.24;53.99;98467.22;4983993;28;20931;-71
2021/07/22 09:24:48;;;;;;;11.10;8.93;;;;;;;22.50;51.99;98451.72;4983458;28;20629;-70
2021/07/22 09:27:40;;;;;;;9.93;8.43;;;;;;;22.53;53.59;98463.94;4983858;28;20917;-70
2021/07/22 09:30:10;;;;;;;8.50;7.80;;;;;;;22.97;52.16;98461.78;4983277;28;20213;-70
2021/07/22 09:32:40;;;;;;;8.97;8.27;;;;;;;22.88;51.92;98463.19;4980861;28;20214;-72
2021/07/22 09:35:12;;;;;;;9.33;8.37;;;;;;;22.80;50.51;98464.34;4981025;28;20582;-71
2021/07/22 09:37:43;;;;;;;9.07;7.97;;;;;;;22.97;51.29;98466.38;4981322;28;20704;-71
2021/07/22 09:40:16;;;;;;;8.17;7.57;;;;;;;23.25;51.32;98460.31;4982188;28;20205;-70
2021/07/22 09:42:46;;;;;;;9.13;8.33;;;;;;;23.36;50.05;98455.97;4982277;28;20213;-71
2021/07/22 09:45:16;;;;;;;8.23;7.63;;;;;;;23.39;50.97;98458.19;4979465;28;20233;-69
2021/07/22 09:47:44;;;;;;;8.63;7.93;;;;;;;23.51;48.73;98457.34;4982805;28;20213;-69
2021/07/22 09:50:14;;;;;;;8.23;7.67;;;;;;;23.36;48.98;98455.13;4983769;28;20201;-70
2021/07/22 09:52:44;;;;;;;8.97;8.10;;;;;;;23.36;49.48;98444.31;4981216;28;20721;-71
2021/07/22 09:55:29;;;;;;;9.47;8.47;;;;;;;23.51;47.90;98449.25;4983030;28;20263;-69
2021/07/22 09:57:59;;;;;;;9.00;8.10;;;;;;;23.42;49.40;98446.06;4980206;28;20198;-70
2021/07/22 10:00:29;;;;;;;12.53;8.63;;;;;;;23.37;49.45;98451.38;4984071;28;20223;-69
2021/07/22 10:03:00;;;;;;;9.50;8.63;;;;;;;23.72;47.39;98447.78;4979965;28;20202;-71
2021/07/22 10:05:30;;;;;;;9.17;7.83;;;;;;;23.50;47.97;98453.00;4979702;28;20312;-70
2021/07/22 10:08:05;;;;;;;7.60;7.00;;;;;;;23.63;45.97;98443.81;4983530;28;20206;-72
2021/07/22 10:10:35;;;;;;;8.20;7.50;;;;;;;23.69;47.01;98440.16;4982971;28;20288;-68
2021/07/22 10:13:04;;;;;;;7.67;7.03;;;;;;;23.89;43.20;98436.22;4979773;28;20205;-69
2021/07/22 10:15:35;;;;;;;7.50;6.90;;;;;;;23.68;43.58;98433.94;4981227;28;20698;-70
2021/07/22 10:18:06;;;;;;;8.33;7.57;;;;;;;23.69;43.64;98437.44;4979814;28;20238;-71
2021/07/22 10:20:35;;;;;;;7.83;7.13;;;;;;;24.02;42.09;98432.41;4980186;28;20292;-69
2021/07/22 10:23:05;;;;;;;7.07;6.47;;;;;;;23.92;44.04;98431.13;4981740;28;20294;-71
2021/07/22 10:25:33;;;;;;;7.40;6.80;;;;;;;23.97;42.79;98430.44;4982555;28;20226;-70
2021/07/22 10:28:02;;;;;;;8.33;7.73;;;;;;;23.92;43.50;98428.44;4978459;28;20197;-70
2021/07/22 10:30:30;;;;;;;8.10;7.30;;;;;;;24.12;43.10;98419.91;4980831;28;20853;-70
2021/07/22 10:33:00;;;;;;;8.27;7.57;;;;;;;23.92;43.56;98423.03;4982017;28;20206;-72
2021/07/22 10:35:31;;;;;;;9.77;7.70;;;;;;;24.00;45.05;98411.00;4981428;28;20221;-71
2021/07/22 10:38:10;;;;;;;9.43;7.67;;;;;;;24.08;44.98;98415.25;4979646;28;20781;-70
2021/07/22 10:40:50;;;;;;;7.47;6.87;;;;;;;24.53;43.26;98416.28;4982577;28;20236;-72
2021/07/22 10:43:41;;;;;;;7.70;7.10;;;;;;;25.12;42.07;98406.94;4981460;28;21617;-70
2021/07/22 10:46:11;;;;;;;7.23;6.63;;;;;;;25.08;41.14;98406.59;4981529;28;20215;-69
2021/07/22 10:48:40;;;;;;;7.53;6.93;;;;;;;25.11;40.53;98399.88;4979327;28;20324;-70
2021/07/22 10:51:09;;;;;;;7.80;7.10;;;;;;;26.15;38.45;98407.38;4981634;28;20670;-72
2021/07/22 10:53:50;;;;;;;8.10;7.37;;;;;;;26.24;38.83;98407.78;4979831;28;20236;-70
2021/07/22 10:56:54;;;;;;;7.10;6.50;;;;;;;26.39;37.12;98410.63;4979923;28;20225;-70
2021/07/22 10:59:53;;;;;;;7.83;7.13;;;;;;;27.03;35.85;98405.44;4974177;28;20215;-71
2021/07/22 11:02:41;;;;;;;7.77;7.07;;;;;;;26.93;35.77;98398.06;4979726;28;20213;-68
2021/07/22 11:05:10;;;;;;;7.33;6.73;;;;;;;27.50;34.75;98395.66;4981646;28;20528;-69
2021/07/22 11:07:38;;;;;;;9.20;7.77;;;;;;;27.48;34.81;98394.28;4978551;28;20198;-69
2021/07/22 11:10:53;;;;;;;7.77;6.77;;;;;;;27.32;35.19;98388.75;4980525;28;20201;-70
2021/07/22 11:13:44;;;;;;;7.80;7.03;;;;;;;27.92;34.67;98391.19;4980640;28;20237;-70
2021/07/22 11:16:20;;;;;;;8.40;7.70;;;;;;;27.54;34.61;98395.97;4981021;28;20241;-70
2021/07/22 11:18:53;;;;;;;8.23;7.23;;;;;;;26.56;36.34;98393.41;4982029;28;20339;-70
2021/07/22 11:21:26;;;;;;;8.27;7.57;;;;;;;27.32;35.38;98387.94;4981282;28;20211;-72
2021/07/22 11:24:02;;;;;;;7.17;6.67;;;;;;;27.40;35.88;98390.94;4979879;28;21660;-71
2021/07/22 11:26:33;;;;;;;8.50;7.80;;;;;;;26.50;37.28;98384.38;4981645;28;20209;-70
2021/07/22 11:29:13;;;;;;;7.57;7.07;;;;;;;26.54;36.77;98388.22;4980903;28;20205;-72
2021/07/22 11:31:41;;;;;;;7.20;6.70;;;;;;;27.24;35.70;98389.25;4980943;28;20202;-70
2021/07/22 11:34:09;;;;;;;8.53;7.90;;;;;;;27.28;35.11;98391.19;4981197;28;20253;-71
2021/07/22 11:36:38;;;;;;;7.80;7.23;;;;;;;26.89;36.30;98385.22;4981529;28;20213;-72